createdAt,value
2018-02-14T00:00:30.675Z,63.99
2018-02-14T00:02:57.349Z,64.23
2018-02-14T00:05:24.722Z,64.77
2018-02-14T00:07:52.115Z,64.31
2018-02-14T00:10:18.791Z,64.05
2018-02-14T00:12:45.455Z,63.80
2018-02-14T00:15:12.801Z,63.79
2018-02-14T00:17:40.212Z,65.55
2018-02-14T00:20:06.830Z,64.94
2018-02-14T00:22:33.442Z,65.88
2018-02-14T00:25:00.076Z,65.10
2018-02-14T00:27:26.674Z,63.98
2018-02-14T00:29:53.333Z,64.01
2018-02-14T00:32:19.948Z,64.26
2018-02-14T00:34:46.583Z,65.09
2018-02-14T00:37:13.266Z,66.05
2018-02-14T00:39:39.881Z,65.89
2018-02-14T00:42:06.462Z,67.50
2018-02-14T00:44:33.150Z,67.26
2018-02-14T00:46:59.778Z,66.22
2018-02-14T00:49:26.377Z,65.24
2018-02-14T00:51:53.787Z,64.45
2018-02-14T00:54:20.395Z,65.54
2018-02-14T00:56:46.967Z,66.83
2018-02-14T00:59:13.561Z,67.20
2018-02-14T01:01:40.246Z,68.74
2018-02-14T01:04:06.890Z,69.54
2018-02-14T01:06:33.502Z,69.23
2018-02-14T01:09:00.177Z,69.38
2018-02-14T01:11:27.526Z,69.11
2018-02-14T01:13:54.133Z,69.96
2018-02-14T01:16:20.711Z,70.33
2018-02-14T01:18:48.038Z,70.61
2018-02-14T01:21:14.675Z,72.07
2018-02-14T01:23:41.295Z,71.58
2018-02-14T01:26:07.895Z,71.68
2018-02-14T01:28:34.481Z,71.36
2018-02-14T01:31:01.117Z,71.91
2018-02-14T01:33:27.743Z,71.92
2018-02-14T01:35:54.341Z,72.05
2018-02-14T01:38:20.954Z,71.13
2018-02-14T01:40:47.570Z,70.77
2018-02-14T01:43:14.176Z,71.73
2018-02-14T01:45:41.603Z,72.51
2018-02-14T01:48:08.230Z,71.62
2018-02-14T01:50:38.965Z,70.69
2018-02-14T01:53:06.354Z,70.56
2018-02-14T01:55:32.954Z,71.13
2018-02-14T01:57:59.875Z,71.77
2018-02-14T02:00:26.534Z,71.67
2018-02-14T02:02:53.192Z,71.63
2018-02-14T02:05:19.910Z,71.28
2018-02-14T02:07:47.263Z,70.96
2018-02-14T02:10:13.918Z,70.61
2018-02-14T02:12:40.538Z,71.32
2018-02-14T02:15:07.102Z,71.11
2018-02-14T02:17:33.727Z,70.28
2018-02-14T02:20:00.363Z,69.49
2018-02-14T02:22:26.998Z,69.42
2018-02-14T02:24:53.622Z,69.41
2018-02-14T02:27:20.234Z,69.91
2018-02-14T02:29:46.852Z,69.72
2018-02-14T02:32:13.459Z,69.97
2018-02-14T02:34:40.082Z,69.93
2018-02-14T02:37:06.702Z,70.33
2018-02-14T02:39:51.555Z,69.94
2018-02-14T02:42:19.085Z,70.20
2018-02-14T02:44:46.459Z,70.18
2018-02-14T02:47:13.149Z,70.60
2018-02-14T02:49:39.775Z,70.54
2018-02-14T02:52:06.455Z,70.26
2018-02-14T02:54:33.058Z,70.72
2018-02-14T02:57:00.399Z,70.98
2018-02-14T02:59:27.766Z,71.30
2018-02-14T03:01:54.421Z,71.80
2018-02-14T03:04:21.019Z,71.72
2018-02-14T03:06:47.669Z,72.30
2018-02-14T03:09:14.298Z,71.16
2018-02-14T03:11:41.639Z,72.01
2018-02-14T03:14:08.582Z,72.75
2018-02-14T03:16:35.140Z,72.41
2018-02-14T03:19:01.733Z,72.72
2018-02-14T03:21:29.103Z,72.73
2018-02-14T03:23:55.972Z,72.61
2018-02-14T03:26:22.610Z,72.78
2018-02-14T03:28:49.952Z,72.95
2018-02-14T03:31:16.653Z,72.86
2018-02-14T03:33:43.241Z,73.10
2018-02-14T03:36:10.582Z,71.73
2018-02-14T03:38:37.190Z,71.49
2018-02-14T03:41:03.959Z,72.51
2018-02-14T03:43:30.615Z,72.30
2018-02-14T03:45:57.961Z,72.02
2018-02-14T03:48:24.607Z,72.58
2018-02-14T03:50:51.944Z,72.54
2018-02-14T03:53:18.535Z,72.00
2018-02-14T03:55:45.131Z,71.27
2018-02-14T03:58:12.487Z,70.88
2018-02-14T04:00:39.086Z,70.74
2018-02-14T04:03:06.493Z,71.57
2018-02-14T04:05:33.086Z,72.36
2018-02-14T04:07:59.701Z,72.54
2018-02-14T04:10:26.299Z,72.42
2018-02-14T04:12:52.909Z,72.04
2018-02-14T04:15:19.502Z,71.75
2018-02-14T04:17:46.117Z,71.50
2018-02-14T04:20:12.690Z,70.68
2018-02-14T04:22:39.290Z,70.45
2018-02-14T04:25:05.930Z,70.87
2018-02-14T04:27:32.703Z,71.12
2018-02-14T04:29:59.318Z,71.45
2018-02-14T04:32:25.922Z,72.05
2018-02-14T04:34:53.246Z,72.69
2018-02-14T04:37:19.847Z,73.38
2018-02-14T04:39:46.503Z,74.68
2018-02-14T04:42:13.131Z,75.09
2018-02-14T04:44:39.902Z,74.90
2018-02-14T04:47:06.566Z,74.48
2018-02-14T04:49:33.896Z,74.46
2018-02-14T04:52:01.281Z,74.89
2018-02-14T04:54:27.881Z,75.43
2018-02-14T04:56:54.536Z,75.92
2018-02-14T04:59:21.286Z,76.31
2018-02-14T05:01:48.646Z,76.29
2018-02-14T05:04:15.237Z,76.30
2018-02-14T05:06:41.873Z,76.09
2018-02-14T05:09:08.480Z,75.27
2018-02-14T05:11:35.133Z,75.46
2018-02-14T05:14:01.731Z,74.72
2018-02-14T05:16:28.392Z,73.82
2018-02-14T05:18:54.985Z,72.60
2018-02-14T05:21:21.724Z,72.46
2018-02-14T05:23:48.343Z,72.20
2018-02-14T05:26:15.723Z,72.36
2018-02-14T05:28:42.387Z,72.44
2018-02-14T05:31:09.008Z,72.72
2018-02-14T05:33:36.399Z,72.58
2018-02-14T05:36:03.042Z,72.80
2018-02-14T05:38:29.670Z,72.53
2018-02-14T05:40:56.311Z,72.58
2018-02-14T05:43:22.930Z,72.77
2018-02-14T05:45:49.578Z,72.39
2018-02-14T05:48:16.150Z,72.64
2018-02-14T05:50:42.746Z,72.64
2018-02-14T05:53:09.372Z,72.37
2018-02-14T05:55:35.996Z,72.25
2018-02-14T05:58:03.375Z,72.29
2018-02-14T06:00:30.076Z,72.18
2018-02-14T06:02:56.695Z,72.25
2018-02-14T06:05:23.339Z,72.45
2018-02-14T06:07:49.939Z,72.51
2018-02-14T06:10:16.566Z,72.37
2018-02-14T06:12:43.883Z,73.07
2018-02-14T06:15:11.249Z,73.07
2018-02-14T06:17:38.624Z,73.60
2018-02-14T06:20:05.241Z,73.81
2018-02-14T06:22:31.863Z,74.71
2018-02-14T06:24:59.256Z,74.42
2018-02-14T06:27:25.900Z,74.04
2018-02-14T06:29:52.910Z,72.67
2018-02-14T06:32:19.586Z,72.16
2018-02-14T06:34:46.200Z,72.75
2018-02-14T06:37:13.568Z,73.09
2018-02-14T06:39:40.218Z,72.83
2018-02-14T06:42:06.919Z,73.64
2018-02-14T06:44:33.574Z,73.85
2018-02-14T06:47:00.330Z,74.14
2018-02-14T06:49:26.933Z,73.96
2018-02-14T06:51:53.637Z,74.08
2018-02-14T06:54:20.249Z,73.59
2018-02-14T06:56:46.859Z,72.77
2018-02-14T06:59:14.251Z,71.94
2018-02-14T07:01:40.923Z,72.03
2018-02-14T07:04:07.522Z,72.01
2018-02-14T07:06:34.218Z,72.17
2018-02-14T07:09:01.729Z,72.16
2018-02-14T07:11:28.387Z,71.85
2018-02-14T07:13:55.106Z,71.91
2018-02-14T07:16:22.158Z,71.18
2018-02-14T07:18:48.905Z,70.85
2018-02-14T07:21:15.690Z,70.38
2018-02-14T07:23:42.468Z,71.01
2018-02-14T07:26:09.123Z,69.75
2018-02-14T07:28:35.795Z,70.00
2018-02-14T07:31:02.397Z,69.72
2018-02-14T07:33:29.049Z,69.13
2018-02-14T07:35:55.678Z,67.39
2018-02-14T07:38:22.293Z,66.80
2018-02-14T07:40:48.974Z,65.50
2018-02-14T07:43:15.642Z,61.98
2018-02-14T07:45:43.022Z,59.69
2018-02-14T07:48:09.671Z,58.49
2018-02-14T07:50:37.062Z,57.96
2018-02-14T07:53:03.724Z,57.73
2018-02-14T07:55:30.369Z,57.60
2018-02-14T07:57:56.978Z,57.09
2018-02-14T08:00:24.334Z,57.29
2018-02-14T08:02:50.978Z,57.40
2018-02-14T08:05:17.567Z,56.05
2018-02-14T08:07:44.152Z,56.42
2018-02-14T08:10:10.827Z,54.98
2018-02-14T08:12:37.426Z,51.10
2018-02-14T08:15:04.803Z,50.63
2018-02-14T08:17:31.430Z,48.91
2018-02-14T08:19:58.764Z,46.15
2018-02-14T08:22:25.388Z,43.69
2018-02-14T08:24:52.011Z,43.08
2018-02-14T08:27:18.655Z,37.74
2018-02-14T08:29:45.236Z,34.57
2018-02-14T08:32:11.907Z,30.62
2018-02-14T08:34:38.592Z,28.33
2018-02-14T08:37:05.354Z,29.34
2018-02-14T08:39:32.728Z,28.98
2018-02-14T08:41:59.496Z,27.79
2018-02-14T08:44:26.071Z,28.46
2018-02-14T08:46:52.693Z,27.70
2018-02-14T08:49:19.307Z,27.65
2018-02-14T08:51:45.910Z,25.43
2018-02-14T08:54:13.260Z,24.29
2018-02-14T08:56:39.830Z,23.07
2018-02-14T08:59:06.434Z,23.09
2018-02-14T09:01:32.991Z,22.42
2018-02-14T09:03:59.610Z,21.38
2018-02-14T09:06:26.188Z,18.78
2018-02-14T09:08:52.797Z,20.74
2018-02-14T09:11:19.386Z,19.79
2018-02-14T09:13:46.714Z,20.13
2018-02-14T09:16:15.088Z,19.40
2018-02-14T09:18:41.706Z,18.70
2018-02-14T09:21:08.317Z,16.87
2018-02-14T09:23:34.951Z,13.72
2018-02-14T09:26:02.311Z,15.15
2018-02-14T09:28:28.995Z,16.10
2018-02-14T09:30:55.612Z,14.08
2018-02-14T09:33:22.208Z,13.58
2018-02-14T09:35:49.650Z,11.32
2018-02-14T09:38:16.223Z,12.85
2018-02-14T09:40:42.859Z,13.22
2018-02-14T09:43:09.462Z,10.59
2018-02-14T09:45:36.074Z,11.67
2018-02-14T09:48:02.725Z,12.88
2018-02-14T09:50:29.330Z,12.38
2018-02-14T09:52:56.274Z,10.04
2018-02-14T09:55:22.937Z,10.86
2018-02-14T09:57:49.513Z,10.54
2018-02-14T10:00:16.168Z,10.12
2018-02-14T10:02:42.783Z,10.58
2018-02-14T10:05:10.179Z,9.63
2018-02-14T10:07:36.741Z,10.14
2018-02-14T10:10:03.335Z,10.20
2018-02-14T10:12:30.066Z,9.21
2018-02-14T10:14:57.402Z,9.06
2018-02-14T10:17:24.727Z,8.00
2018-02-14T10:19:52.121Z,9.49
2018-02-14T10:22:19.459Z,10.06
2018-02-14T10:24:46.077Z,10.03
2018-02-14T10:27:12.646Z,10.45
2018-02-14T10:29:40.233Z,11.77
2018-02-14T10:32:06.843Z,11.52
2018-02-14T10:34:34.195Z,12.79
2018-02-14T10:37:01.535Z,12.04
2018-02-14T10:39:28.110Z,12.63
2018-02-14T10:41:54.806Z,12.42
2018-02-14T10:44:21.437Z,12.36
2018-02-14T10:46:48.050Z,12.79
2018-02-14T10:49:14.653Z,13.34
2018-02-14T10:51:41.262Z,13.84
2018-02-14T10:54:07.922Z,13.62
2018-02-14T10:56:34.532Z,13.33
2018-02-14T10:59:01.145Z,14.44
2018-02-14T11:01:33.755Z,14.00
2018-02-14T11:06:53.745Z,13.27
2018-02-14T11:09:20.333Z,13.74
2018-02-14T11:11:46.991Z,13.31
2018-02-14T11:14:13.710Z,13.69
2018-02-14T11:16:40.310Z,14.99
2018-02-14T11:19:06.982Z,16.58
2018-02-14T11:21:33.618Z,18.42
2018-02-14T11:24:00.203Z,19.90
2018-02-14T11:26:26.830Z,20.76
2018-02-14T11:28:53.425Z,21.38
2018-02-14T11:31:20.124Z,22.71
2018-02-14T11:33:46.786Z,23.33
2018-02-14T11:36:13.375Z,24.10
2018-02-14T11:38:39.994Z,23.60
2018-02-14T11:41:06.596Z,24.26
2018-02-14T11:43:33.200Z,24.39
2018-02-14T11:45:59.837Z,24.21
2018-02-14T11:48:26.450Z,25.64
2018-02-14T11:50:53.038Z,25.56
2018-02-14T11:53:19.723Z,25.83
2018-02-14T11:55:46.317Z,26.28
2018-02-14T11:58:12.950Z,26.39
2018-02-14T12:00:39.645Z,26.69
2018-02-14T12:03:06.385Z,26.79
2018-02-14T12:05:32.951Z,27.21
2018-02-14T12:08:00.321Z,26.69
2018-02-14T12:10:27.650Z,27.78
2018-02-14T12:12:54.319Z,28.14
2018-02-14T12:15:20.950Z,28.34
2018-02-14T12:17:48.298Z,29.45
2018-02-14T12:20:14.954Z,29.36
2018-02-14T12:22:41.571Z,29.60
2018-02-14T12:25:09.067Z,29.74
2018-02-14T12:27:35.783Z,30.09
2018-02-14T12:30:02.523Z,30.13
2018-02-14T12:32:29.112Z,30.68
2018-02-14T12:34:55.687Z,30.92
2018-02-14T12:37:23.178Z,30.69
2018-02-14T12:39:49.795Z,31.23
2018-02-14T12:42:16.414Z,30.69
2018-02-14T12:44:43.048Z,29.33
2018-02-14T12:47:09.640Z,29.53
2018-02-14T12:49:36.296Z,30.30
2018-02-14T12:52:02.928Z,29.86
2018-02-14T12:54:30.317Z,29.98
2018-02-14T12:56:57.716Z,29.84
2018-02-14T12:59:24.373Z,30.13
2018-02-14T13:01:51.119Z,31.00
2018-02-14T13:04:17.754Z,31.00
2018-02-14T13:06:44.374Z,31.44
2018-02-14T13:09:11.020Z,31.72
2018-02-14T13:11:37.792Z,33.16
2018-02-14T13:14:04.370Z,33.83
2018-02-14T13:16:30.988Z,34.70
2018-02-14T13:18:58.343Z,34.28
2018-02-14T13:21:25.702Z,34.51
2018-02-14T13:23:52.313Z,35.33
2018-02-14T13:26:18.978Z,34.66
2018-02-14T13:28:45.626Z,35.80
2018-02-14T13:31:12.258Z,35.63
2018-02-14T13:33:38.858Z,36.07
2018-02-14T13:36:05.492Z,37.12
2018-02-14T13:38:32.095Z,37.80
2018-02-14T13:40:58.669Z,37.17
2018-02-14T13:43:26.055Z,38.52
2018-02-14T13:45:53.419Z,38.12
2018-02-14T13:48:21.156Z,37.97
2018-02-14T13:50:48.496Z,38.21
2018-02-14T13:53:15.913Z,38.83
2018-02-14T13:55:42.539Z,37.07
2018-02-14T13:58:09.113Z,37.16
2018-02-14T14:00:35.812Z,38.40
2018-02-14T14:03:02.430Z,38.13
2018-02-14T14:05:29.857Z,37.45
2018-02-14T14:07:56.559Z,38.29
2018-02-14T14:10:23.199Z,37.48
2018-02-14T14:12:49.799Z,37.48
2018-02-14T14:15:16.459Z,36.53
2018-02-14T14:17:43.114Z,36.50
2018-02-14T14:20:09.738Z,37.75
2018-02-14T14:22:37.170Z,37.83
2018-02-14T14:25:04.491Z,37.56
2018-02-14T14:27:31.082Z,38.97
2018-02-14T14:29:57.686Z,39.40
2018-02-14T14:32:24.290Z,38.89
2018-02-14T14:34:50.866Z,38.95
2018-02-14T14:37:17.558Z,38.90
2018-02-14T14:39:44.168Z,38.84
2018-02-14T14:42:10.851Z,38.66
2018-02-14T14:44:37.419Z,39.60
2018-02-14T14:47:04.739Z,40.04
2018-02-14T14:49:31.557Z,40.13
2018-02-14T14:51:58.170Z,39.71
2018-02-14T14:54:24.740Z,38.34
2018-02-14T14:56:51.394Z,38.23
2018-02-14T14:59:17.984Z,39.54
2018-02-14T15:01:44.582Z,39.76
2018-02-14T15:04:11.934Z,39.86
2018-02-14T15:06:38.542Z,40.63
2018-02-14T15:09:05.149Z,40.75
2018-02-14T15:11:31.734Z,40.46
2018-02-14T15:13:58.362Z,42.08
2018-02-14T15:16:25.026Z,41.54
2018-02-14T15:18:51.617Z,41.33
2018-02-14T15:21:18.207Z,42.96
2018-02-14T15:23:44.824Z,43.23
2018-02-14T15:26:12.243Z,42.29
2018-02-14T15:28:38.968Z,43.29
2018-02-14T15:31:05.582Z,43.62
2018-02-14T15:33:32.914Z,44.07
2018-02-14T15:35:59.555Z,43.97
2018-02-14T15:38:26.162Z,44.10
2018-02-14T15:40:52.890Z,43.81
2018-02-14T15:43:19.501Z,44.81
2018-02-14T15:45:46.103Z,44.30
2018-02-14T15:48:12.700Z,43.74
2018-02-14T15:50:39.309Z,43.67
2018-02-14T15:53:05.904Z,44.38
2018-02-14T15:55:32.503Z,43.74
2018-02-14T15:57:59.125Z,45.12
2018-02-14T16:00:25.718Z,45.20
2018-02-14T16:02:52.343Z,44.94
2018-02-14T16:05:18.943Z,43.60
2018-02-14T16:07:45.541Z,44.36
2018-02-14T16:10:12.956Z,43.92
2018-02-14T16:12:39.600Z,44.33
2018-02-14T16:15:06.228Z,44.66
2018-02-14T16:17:32.885Z,46.53
2018-02-14T16:19:59.464Z,46.30
2018-02-14T16:22:26.846Z,44.92
2018-02-14T16:24:53.427Z,46.67
2018-02-14T16:27:20.022Z,47.29
2018-02-14T16:29:46.610Z,49.40
2018-02-14T16:32:14.030Z,49.40
2018-02-14T16:34:40.645Z,50.93
2018-02-14T16:37:07.267Z,48.58
2018-02-14T16:39:33.907Z,47.31
2018-02-14T16:42:00.525Z,47.23
2018-02-14T16:44:27.851Z,47.81
2018-02-14T16:46:54.591Z,47.64
2018-02-14T16:49:22.675Z,48.69
2018-02-14T16:51:50.019Z,49.51
2018-02-14T16:54:16.625Z,50.61
2018-02-14T16:56:43.209Z,50.11
2018-02-14T16:59:10.553Z,49.81
2018-02-14T17:01:37.881Z,50.00
2018-02-14T17:04:04.522Z,49.93
2018-02-14T17:06:31.155Z,49.92
2018-02-14T17:08:57.790Z,50.71
2018-02-14T17:11:24.366Z,50.72
2018-02-14T17:13:51.981Z,50.53
2018-02-14T17:16:18.637Z,51.41
2018-02-14T17:18:45.243Z,51.56
2018-02-14T17:21:11.853Z,52.15
2018-02-14T17:23:39.190Z,52.10
2018-02-14T17:26:06.614Z,52.31
2018-02-14T17:28:33.254Z,52.25
2018-02-14T17:30:59.912Z,52.23
2018-02-14T17:33:26.506Z,52.47
2018-02-14T17:35:53.116Z,52.92
2018-02-14T17:38:19.708Z,53.25
2018-02-14T17:40:46.336Z,53.67
2018-02-14T17:43:12.981Z,53.67
2018-02-14T17:45:39.574Z,54.07
2018-02-14T17:48:06.175Z,54.19
2018-02-14T17:50:32.820Z,54.17
2018-02-14T17:53:00.169Z,54.41
2018-02-14T17:55:27.502Z,54.26
2018-02-14T17:57:54.110Z,54.54
2018-02-14T18:00:20.768Z,54.44
2018-02-14T18:02:47.373Z,54.62
2018-02-14T18:05:13.974Z,54.87
2018-02-14T18:07:41.330Z,54.83
2018-02-14T18:10:08.000Z,55.02
2018-02-14T18:12:34.645Z,55.09
2018-02-14T18:15:01.241Z,55.01
2018-02-14T18:17:27.892Z,54.80
2018-02-14T18:19:55.270Z,54.94
2018-02-14T18:22:21.877Z,54.98
2018-02-14T18:24:49.244Z,54.71
2018-02-14T18:27:15.835Z,54.58
2018-02-14T18:29:42.446Z,54.55
2018-02-14T18:32:09.060Z,54.60
2018-02-14T18:34:35.651Z,54.64
2018-02-14T18:37:02.314Z,54.68
2018-02-14T18:39:29.631Z,54.83
2018-02-14T18:41:56.285Z,55.19
2018-02-14T18:44:22.878Z,55.20
2018-02-14T18:46:49.486Z,55.65
2018-02-14T18:49:16.126Z,55.98
2018-02-14T18:51:43.026Z,56.24
2018-02-14T18:54:09.646Z,56.19
2018-02-14T18:56:36.252Z,56.26
2018-02-14T18:59:03.631Z,56.39
2018-02-14T19:01:30.250Z,56.25
2018-02-14T19:03:56.882Z,56.32
2018-02-14T19:06:23.501Z,56.71
2018-02-14T19:08:50.102Z,56.68
2018-02-14T19:11:17.036Z,56.91
2018-02-14T19:13:43.720Z,56.81
2018-02-14T19:16:10.364Z,56.79
2018-02-14T19:18:36.986Z,56.76
2018-02-14T19:21:04.712Z,57.25
2018-02-14T19:23:32.302Z,57.57
2018-02-14T19:25:58.917Z,57.66
2018-02-14T19:28:25.531Z,57.50
2018-02-14T19:30:52.231Z,57.71
2018-02-14T19:33:18.862Z,57.15
2018-02-14T19:35:46.250Z,56.92
2018-02-14T19:38:12.950Z,57.12
2018-02-14T19:40:39.601Z,56.85
2018-02-14T19:43:06.476Z,56.89
2018-02-14T19:45:33.122Z,56.50
2018-02-14T19:47:59.756Z,56.42
2018-02-14T19:50:26.482Z,56.48
2018-02-14T19:52:53.117Z,56.56
2018-02-14T19:55:19.766Z,56.32
2018-02-14T19:57:46.393Z,56.32
2018-02-14T20:00:13.064Z,56.08
2018-02-14T20:02:39.726Z,56.36
2018-02-14T20:05:06.517Z,56.00
2018-02-14T20:07:33.157Z,55.94
2018-02-14T20:09:59.772Z,55.85
2018-02-14T20:12:27.254Z,56.19
2018-02-14T20:14:53.992Z,56.11
2018-02-14T20:17:20.639Z,55.94
2018-02-14T20:19:47.256Z,55.80
2018-02-14T20:22:13.926Z,56.08
2018-02-14T20:24:40.600Z,56.04
2018-02-14T20:27:07.989Z,56.07
2018-02-14T20:29:34.610Z,55.61
2018-02-14T20:32:02.219Z,55.78
2018-02-14T20:34:28.967Z,55.81
2018-02-14T20:36:56.336Z,55.81
2018-02-14T20:39:23.058Z,55.97
2018-02-14T20:41:49.685Z,55.93
2018-02-14T20:44:16.310Z,55.63
2018-02-14T20:46:42.958Z,55.42
2018-02-14T20:49:09.587Z,55.48
2018-02-14T20:51:36.210Z,55.11
2018-02-14T20:54:02.818Z,54.97
2018-02-14T20:56:30.171Z,55.10
2018-02-14T20:58:56.782Z,55.39
2018-02-14T21:01:23.423Z,56.19
2018-02-14T21:03:50.010Z,56.59
2018-02-14T21:06:16.638Z,56.69
2018-02-14T21:08:43.284Z,56.93
2018-02-14T21:11:09.908Z,57.21
2018-02-14T21:13:37.222Z,57.01
2018-02-14T21:16:03.842Z,56.45
2018-02-14T21:18:30.832Z,56.39
2018-02-14T21:20:58.217Z,55.92
2018-02-14T21:23:24.837Z,55.42
2018-02-14T21:25:51.502Z,55.11
2018-02-14T21:28:18.126Z,54.95
2018-02-14T21:30:44.746Z,54.84
2018-02-14T21:33:11.346Z,54.69
2018-02-14T21:35:37.966Z,54.66
2018-02-14T21:38:04.665Z,54.52
2018-02-14T21:40:32.015Z,54.30
2018-02-14T21:42:58.687Z,54.08
2018-02-14T21:45:25.327Z,54.02
2018-02-14T21:47:52.194Z,53.82
2018-02-14T21:50:19.577Z,53.69
2018-02-14T21:52:46.973Z,53.32
2018-02-14T21:55:13.631Z,52.78
2018-02-14T21:57:40.246Z,52.75
2018-02-14T22:00:06.858Z,52.80
2018-02-14T22:02:33.449Z,51.31
2018-02-14T22:05:00.099Z,50.97
2018-02-14T22:07:26.678Z,50.98
2018-02-14T22:09:53.384Z,50.75
2018-02-14T22:12:19.962Z,50.81
2018-02-14T22:14:46.538Z,51.01
2018-02-14T22:17:13.232Z,51.26
2018-02-14T22:19:39.863Z,51.30
2018-02-14T22:22:06.532Z,51.41
2018-02-14T22:24:33.109Z,51.63
2018-02-14T22:26:59.702Z,51.62
2018-02-14T22:29:27.095Z,51.52
2018-02-14T22:31:53.741Z,51.95
2018-02-14T22:34:20.402Z,52.38
2018-02-14T22:36:47.798Z,52.56
2018-02-14T22:39:14.403Z,52.60
2018-02-14T22:41:41.090Z,52.73
2018-02-14T22:44:07.689Z,52.61
2018-02-14T22:46:34.275Z,52.74
2018-02-14T22:49:01.683Z,52.70
2018-02-14T22:51:28.280Z,52.87
2018-02-14T22:53:54.919Z,52.78
2018-02-14T22:56:21.644Z,52.46
2018-02-14T22:58:48.306Z,52.46
2018-02-14T23:01:14.937Z,52.54
2018-02-14T23:03:41.577Z,52.72
2018-02-14T23:06:08.932Z,52.65
2018-02-14T23:08:35.539Z,52.46
2018-02-14T23:11:02.146Z,52.69
2018-02-14T23:13:28.762Z,52.80
2018-02-14T23:15:55.386Z,52.70
2018-02-14T23:18:22.007Z,53.00
2018-02-14T23:20:48.589Z,52.67
2018-02-14T23:23:15.199Z,52.12
2018-02-14T23:25:41.800Z,52.27
2018-02-14T23:28:08.423Z,52.23
2018-02-14T23:30:35.072Z,51.84
2018-02-14T23:33:01.674Z,52.39
2018-02-14T23:35:28.302Z,51.57
2018-02-14T23:37:54.927Z,51.28
2018-02-14T23:40:22.339Z,51.41
2018-02-14T23:42:48.963Z,51.63
2018-02-14T23:45:15.578Z,51.81
2018-02-14T23:47:42.198Z,51.73
2018-02-14T23:50:08.810Z,51.86
2018-02-14T23:52:36.239Z,51.84
2018-02-14T23:55:02.865Z,51.68
2018-02-14T23:57:29.442Z,51.65
2018-02-14T23:59:56.797Z,51.73
